Federal Leda — V7FL3 — position and weather

sailwx.info

Track history (hours):
 
Tides and Currents Weather Stations Pressure Air Temp Water Temp Dewpoint Dewpoint Depression Visibility Wind Speed Wind Dir Waves Ship Positions

Federal Leda

Last reported at 2017-Oct-17 13:25 UTC. Time now 2017-Oct-19 23:51 UTC.
Position N 51°01' W 057°33'.

Length 200 m; draft 8.3 m.

Type: Cargo ship. MMSI: 538005611.

Date/timePositionNaut miles runAvg speedWind from/ knotsBaromVisibWave heightAir tempDewpointWater temp
2017-Oct-17 13:25N 51°01' W 057°33'613.4
2017-Oct-17 13:00N 50°57' W 057°39'  
2017-Oct-14 09:23N 45°31' W 073°31'1 1.9
2017-Oct-14 08:37N 45°30' W 073°31'0 0.6
2017-Oct-14 08:28N 45°29' W 073°31'1 2.2
2017-Oct-14 08:00N 45°29' W 073°30'3 5.7
2017-Oct-14 07:30N 45°26' W 073°30'3 5.4
2017-Oct-14 07:00N 45°24' W 073°34'0 0.6
2017-Oct-14 06:30N 45°24' W 073°34'1 1.7
2017-Oct-14 06:00N 45°24' W 073°35'2 4.6
2017-Oct-14 05:30N 45°24' W 073°38'3 5.6
2017-Oct-14 05:00N 45°25' W 073°42'510.6
2017-Oct-14 04:30N 45°22' W 073°49'510.6
2017-Oct-14 04:00N 45°19' W 073°55'0 0.6
2017-Oct-14 03:30N 45°19' W 073°55'1 1.5
2017-Oct-14 03:00N 45°18' W 073°56'0 0.6
2017-Oct-14 02:30N 45°18' W 073°56'3 5.3
2017-Oct-14 02:00N 45°16' W 073°58'610.0
2017-Oct-14 01:22N 45°13' W 074°06'  
Track history (hours):
 
Tides and Currents Weather Stations Pressure Air Temp Water Temp Dewpoint Dewpoint Depression Visibility Wind Speed Wind Dir Waves Ship Positions

Federal Leda

Last reported at 2017-Oct-17 13:25 UTC. Time now 2017-Oct-19 23:51 UTC.
Position N 51°01' W 057°33'.

Length 200 m; draft 8.3 m.

Type: Cargo ship. MMSI: 538005611.

Date/timePositionNaut miles runAvg speedWind from/ knotsBaromVisibWave heightAir tempDewpointWater temp
2017-Oct-17 13:25N 51°01' W 057°33'613.4
2017-Oct-17 13:00N 50°57' W 057°39'  
2017-Oct-14 09:23N 45°31' W 073°31'1 1.9
2017-Oct-14 08:37N 45°30' W 073°31'0 0.6
2017-Oct-14 08:28N 45°29' W 073°31'1 2.2
2017-Oct-14 08:00N 45°29' W 073°30'3 5.7
2017-Oct-14 07:30N 45°26' W 073°30'3 5.4
2017-Oct-14 07:00N 45°24' W 073°34'0 0.6
2017-Oct-14 06:30N 45°24' W 073°34'1 1.7
2017-Oct-14 06:00N 45°24' W 073°35'2 4.6
2017-Oct-14 05:30N 45°24' W 073°38'3 5.6
2017-Oct-14 05:00N 45°25' W 073°42'510.6
2017-Oct-14 04:30N 45°22' W 073°49'510.6
2017-Oct-14 04:00N 45°19' W 073°55'0 0.6
2017-Oct-14 03:30N 45°19' W 073°55'1 1.5
2017-Oct-14 03:00N 45°18' W 073°56'0 0.6
2017-Oct-14 02:30N 45°18' W 073°56'3 5.3
2017-Oct-14 02:00N 45°16' W 073°58'610.0
2017-Oct-14 01:22N 45°13' W 074°06'  

Dump ship's entire track history